sensor_id;sensor_type;location;lat;lon;timestamp;temperature;humidity
18305;DHT22;9278;52.156;21.048;2023-04-25T00:00:29;11.60;99.90
18305;DHT22;9278;52.156;21.048;2023-04-25T00:02:58;11.50;99.90
18305;DHT22;9278;52.156;21.048;2023-04-25T00:05:28;11.50;99.90
18305;DHT22;9278;52.156;21.048;2023-04-25T00:07:57;11.60;99.90
18305;DHT22;9278;52.156;21.048;2023-04-25T00:10:26;11.60;99.90
18305;DHT22;9278;52.156;21.048;2023-04-25T00:12:54;12.80;99.90
18305;DHT22;9278;52.156;21.048;2023-04-25T00:15:22;11.60;99.90
18305;DHT22;9278;52.156;21.048;2023-04-25T00:17:51;11.70;99.90
18305;DHT22;9278;52.156;21.048;2023-04-25T00:20:20;11.60;99.90
18305;DHT22;9278;52.156;21.048;2023-04-25T00:22:50;11.70;99.90
18305;DHT22;9278;52.156;21.048;2023-04-25T00:25:19;11.70;99.90
18305;DHT22;9278;52.156;21.048;2023-04-25T00:30:16;11.70;99.90
18305;DHT22;9278;52.156;21.048;2023-04-25T00:32:44;11.80;99.90
18305;DHT22;9278;52.156;21.048;2023-04-25T00:35:13;11.90;99.90
18305;DHT22;9278;52.156;21.048;2023-04-25T00:37:41;11.90;99.90
18305;DHT22;9278;52.156;21.048;2023-04-25T00:40:11;12.00;99.90
18305;DHT22;9278;52.156;21.048;2023-04-25T00:42:40;12.10;99.90
18305;DHT22;9278;52.156;21.048;2023-04-25T00:45:13;12.10;99.90
18305;DHT22;9278;52.156;21.048;2023-04-25T00:47:42;12.00;99.90
18305;DHT22;9278;52.156;21.048;2023-04-25T00:50:10;11.90;99.90
18305;DHT22;9278;52.156;21.048;2023-04-25T00:52:42;11.80;99.90
18305;DHT22;9278;52.156;21.048;2023-04-25T00:55:12;11.70;99.90
18305;DHT22;9278;52.156;21.048;2023-04-25T00:57:43;11.60;99.90
18305;DHT22;9278;52.156;21.048;2023-04-25T01:00:11;11.60;99.90
18305;DHT22;9278;52.156;21.048;2023-04-25T01:02:40;11.60;99.90
18305;DHT22;9278;52.156;21.048;2023-04-25T01:05:10;11.50;99.90
18305;DHT22;9278;52.156;21.048;2023-04-25T01:10:08;11.40;99.90
18305;DHT22;9278;52.156;21.048;2023-04-25T01:12:38;11.40;99.90
18305;DHT22;9278;52.156;21.048;2023-04-25T01:15:07;11.30;99.90
18305;DHT22;9278;52.156;21.048;2023-04-25T01:17:35;11.30;99.90
18305;DHT22;9278;52.156;21.048;2023-04-25T01:20:04;11.30;99.90
18305;DHT22;9278;52.156;21.048;2023-04-25T01:22:35;11.30;99.90
18305;DHT22;9278;52.156;21.048;2023-04-25T01:25:04;11.20;99.90
18305;DHT22;9278;52.156;21.048;2023-04-25T01:27:33;11.20;99.90
18305;DHT22;9278;52.156;21.048;2023-04-25T01:30:01;11.20;99.90
18305;DHT22;9278;52.156;21.048;2023-04-25T01:32:31;11.10;99.90
18305;DHT22;9278;52.156;21.048;2023-04-25T01:35:06;11.10;99.90
18305;DHT22;9278;52.156;21.048;2023-04-25T01:37:38;11.00;99.90
18305;DHT22;9278;52.156;21.048;2023-04-25T01:40:07;11.00;99.90
18305;DHT22;9278;52.156;21.048;2023-04-25T01:42:38;11.10;99.90
18305;DHT22;9278;52.156;21.048;2023-04-25T01:45:08;11.20;99.90
18305;DHT22;9278;52.156;21.048;2023-04-25T01:47:37;11.30;99.90
18305;DHT22;9278;52.156;21.048;2023-04-25T01:50:07;11.50;99.90
18305;DHT22;9278;52.156;21.048;2023-04-25T01:52:38;11.60;94.20
18305;DHT22;9278;52.156;21.048;2023-04-25T01:55:08;11.70;99.90
18305;DHT22;9278;52.156;21.048;2023-04-25T01:57:40;11.80;27.40
18305;DHT22;9278;52.156;21.048;2023-04-25T02:00:09;11.80;99.90
18305;DHT22;9278;52.156;21.048;2023-04-25T02:02:40;11.90;18.60
18305;DHT22;9278;52.156;21.048;2023-04-25T02:05:21;11.80;1.00
18305;DHT22;9278;52.156;21.048;2023-04-25T02:07:52;11.60;1.00
18305;DHT22;9278;52.156;21.048;2023-04-25T02:10:20;11.50;1.00
18305;DHT22;9278;52.156;21.048;2023-04-25T02:13:02;11.40;1.00
18305;DHT22;9278;52.156;21.048;2023-04-25T02:15:49;11.30;1.00
18305;DHT22;9278;52.156;21.048;2023-04-25T02:18:19;11.30;1.00
18305;DHT22;9278;52.156;21.048;2023-04-25T02:20:48;11.30;1.00
18305;DHT22;9278;52.156;21.048;2023-04-25T02:23:18;11.30;9.30
18305;DHT22;9278;52.156;21.048;2023-04-25T02:25:46;11.30;1.00
18305;DHT22;9278;52.156;21.048;2023-04-25T02:28:15;10.80;1.00
18305;DHT22;9278;52.156;21.048;2023-04-25T02:30:43;11.20;1.00
18305;DHT22;9278;52.156;21.048;2023-04-25T02:33:12;11.20;1.00
18305;DHT22;9278;52.156;21.048;2023-04-25T02:35:40;11.20;1.00
18305;DHT22;9278;52.156;21.048;2023-04-25T02:38:08;11.20;1.00
18305;DHT22;9278;52.156;21.048;2023-04-25T02:40:38;11.20;1.00
18305;DHT22;9278;52.156;21.048;2023-04-25T02:43:06;11.20;1.00
18305;DHT22;9278;52.156;21.048;2023-04-25T02:45:34;11.10;1.00
18305;DHT22;9278;52.156;21.048;2023-04-25T02:48:03;11.10;1.00
18305;DHT22;9278;52.156;21.048;2023-04-25T02:53:00;11.00;1.00
18305;DHT22;9278;52.156;21.048;2023-04-25T02:58:06;11.00;1.00
18305;DHT22;9278;52.156;21.048;2023-04-25T03:00:53;10.90;1.00
18305;DHT22;9278;52.156;21.048;2023-04-25T03:03:22;10.90;1.00
18305;DHT22;9278;52.156;21.048;2023-04-25T03:05:51;10.90;1.00
18305;DHT22;9278;52.156;21.048;2023-04-25T03:08:24;10.90;1.00
18305;DHT22;9278;52.156;21.048;2023-04-25T03:10:56;10.80;1.00
18305;DHT22;9278;52.156;21.048;2023-04-25T03:13:27;10.90;1.00
18305;DHT22;9278;52.156;21.048;2023-04-25T03:15:57;10.90;1.00
18305;DHT22;9278;52.156;21.048;2023-04-25T03:18:25;10.90;1.00
18305;DHT22;9278;52.156;21.048;2023-04-25T03:20:54;11.00;1.00
18305;DHT22;9278;52.156;21.048;2023-04-25T03:23:23;11.10;1.00
18305;DHT22;9278;52.156;21.048;2023-04-25T03:25:51;11.20;1.00
18305;DHT22;9278;52.156;21.048;2023-04-25T03:28:20;11.30;1.00
18305;DHT22;9278;52.156;21.048;2023-04-25T03:30:50;11.40;1.00
18305;DHT22;9278;52.156;21.048;2023-04-25T03:33:18;11.40;1.00
18305;DHT22;9278;52.156;21.048;2023-04-25T03:35:46;11.50;1.00
18305;DHT22;9278;52.156;21.048;2023-04-25T03:40:44;11.50;1.00
18305;DHT22;9278;52.156;21.048;2023-04-25T03:43:22;11.50;1.00
18305;DHT22;9278;52.156;21.048;2023-04-25T03:45:58;11.50;1.00
18305;DHT22;9278;52.156;21.048;2023-04-25T03:48:27;11.60;1.00
18305;DHT22;9278;52.156;21.048;2023-04-25T03:50:55;11.60;1.00
18305;DHT22;9278;52.156;21.048;2023-04-25T03:53:24;11.70;1.00
18305;DHT22;9278;52.156;21.048;2023-04-25T03:58:52;11.70;1.00
18305;DHT22;9278;52.156;21.048;2023-04-25T04:01:25;11.70;1.00
18305;DHT22;9278;52.156;21.048;2023-04-25T04:03:53;11.70;1.00
18305;DHT22;9278;52.156;21.048;2023-04-25T04:06:23;11.60;1.00
18305;DHT22;9278;52.156;21.048;2023-04-25T04:09:00;11.60;1.00
18305;DHT22;9278;52.156;21.048;2023-04-25T04:11:32;11.70;1.00
18305;DHT22;9278;52.156;21.048;2023-04-25T04:14:00;11.80;1.00
18305;DHT22;9278;52.156;21.048;2023-04-25T04:16:30;11.80;1.00
18305;DHT22;9278;52.156;21.048;2023-04-25T04:19:02;11.80;1.00
18305;DHT22;9278;52.156;21.048;2023-04-25T04:21:31;11.80;1.00
18305;DHT22;9278;52.156;21.048;2023-04-25T04:24:02;11.90;1.00
18305;DHT22;9278;52.156;21.048;2023-04-25T04:26:39;11.80;1.00
18305;DHT22;9278;52.156;21.048;2023-04-25T04:29:21;11.80;1.00
18305;DHT22;9278;52.156;21.048;2023-04-25T04:32:00;11.70;1.00
18305;DHT22;9278;52.156;21.048;2023-04-25T04:34:31;11.70;1.00
18305;DHT22;9278;52.156;21.048;2023-04-25T04:37:01;12.10;1.00
18305;DHT22;9278;52.156;21.048;2023-04-25T04:39:29;11.70;1.00
18305;DHT22;9278;52.156;21.048;2023-04-25T04:44:54;11.80;1.00
18305;DHT22;9278;52.156;21.048;2023-04-25T04:47:40;11.80;1.00
18305;DHT22;9278;52.156;21.048;2023-04-25T04:50:31;11.90;1.00
18305;DHT22;9278;52.156;21.048;2023-04-25T04:53:27;11.90;1.00
18305;DHT22;9278;52.156;21.048;2023-04-25T04:56:14;11.60;1.00
18305;DHT22;9278;52.156;21.048;2023-04-25T04:58:56;11.80;1.00
18305;DHT22;9278;52.156;21.048;2023-04-25T05:04:29;11.60;1.00
18305;DHT22;9278;52.156;21.048;2023-04-25T05:07:04;11.40;1.00
18305;DHT22;9278;52.156;21.048;2023-04-25T05:09:49;11.30;1.00
18305;DHT22;9278;52.156;21.048;2023-04-25T05:12:52;11.30;1.00
18305;DHT22;9278;52.156;21.048;2023-04-25T05:15:37;11.30;1.00
18305;DHT22;9278;52.156;21.048;2023-04-25T05:18:32;11.20;1.00
18305;DHT22;9278;52.156;21.048;2023-04-25T05:21:18;11.20;99.90
18305;DHT22;9278;52.156;21.048;2023-04-25T05:24:19;10.90;1.00
18305;DHT22;9278;52.156;21.048;2023-04-25T05:27:06;10.90;99.90
18305;DHT22;9278;52.156;21.048;2023-04-25T05:29:37;10.80;1.00
18305;DHT22;9278;52.156;21.048;2023-04-25T05:32:16;10.70;1.00
18305;DHT22;9278;52.156;21.048;2023-04-25T05:34:47;10.70;99.90
18305;DHT22;9278;52.156;21.048;2023-04-25T05:37:39;10.80;1.00
18305;DHT22;9278;52.156;21.048;2023-04-25T05:40:13;11.00;99.90
18305;DHT22;9278;52.156;21.048;2023-04-25T05:43:11;11.20;1.00
18305;DHT22;9278;52.156;21.048;2023-04-25T05:45:48;11.10;1.00
18305;DHT22;9278;52.156;21.048;2023-04-25T05:48:31;11.60;1.00
18305;DHT22;9278;52.156;21.048;2023-04-25T05:51:16;11.70;1.00
18305;DHT22;9278;52.156;21.048;2023-04-25T05:53:58;11.70;1.00
18305;DHT22;9278;52.156;21.048;2023-04-25T05:56:26;11.70;1.00
18305;DHT22;9278;52.156;21.048;2023-04-25T05:58:55;11.50;1.00
18305;DHT22;9278;52.156;21.048;2023-04-25T06:03:52;11.40;1.00
18305;DHT22;9278;52.156;21.048;2023-04-25T06:06:21;11.60;1.00
18305;DHT22;9278;52.156;21.048;2023-04-25T06:08:50;11.60;1.00
18305;DHT22;9278;52.156;21.048;2023-04-25T06:11:19;11.70;1.00
18305;DHT22;9278;52.156;21.048;2023-04-25T06:13:47;12.20;99.90
18305;DHT22;9278;52.156;21.048;2023-04-25T06:16:16;11.50;1.00
18305;DHT22;9278;52.156;21.048;2023-04-25T06:18:45;11.90;1.00
18305;DHT22;9278;52.156;21.048;2023-04-25T06:21:14;11.80;1.00
18305;DHT22;9278;52.156;21.048;2023-04-25T06:23:43;11.50;1.00
18305;DHT22;9278;52.156;21.048;2023-04-25T06:26:19;11.10;1.00
18305;DHT22;9278;52.156;21.048;2023-04-25T06:28:48;11.30;1.00
18305;DHT22;9278;52.156;21.048;2023-04-25T06:31:16;11.40;1.00
18305;DHT22;9278;52.156;21.048;2023-04-25T06:33:46;11.60;1.00
18305;DHT22;9278;52.156;21.048;2023-04-25T06:38:47;11.30;73.60
18305;DHT22;9278;52.156;21.048;2023-04-25T06:41:16;11.00;99.90
18305;DHT22;9278;52.156;21.048;2023-04-25T06:43:46;10.70;99.90
18305;DHT22;9278;52.156;21.048;2023-04-25T06:46:27;10.90;99.90
18305;DHT22;9278;52.156;21.048;2023-04-25T06:48:58;11.00;1.00
18305;DHT22;9278;52.156;21.048;2023-04-25T06:51:26;10.60;1.00
18305;DHT22;9278;52.156;21.048;2023-04-25T06:53:57;10.40;1.00
18305;DHT22;9278;52.156;21.048;2023-04-25T06:56:30;11.10;99.90
18305;DHT22;9278;52.156;21.048;2023-04-25T06:59:12;11.20;1.00
18305;DHT22;9278;52.156;21.048;2023-04-25T07:01:41;11.30;1.00
18305;DHT22;9278;52.156;21.048;2023-04-25T07:04:15;11.70;1.00
18305;DHT22;9278;52.156;21.048;2023-04-25T07:06:48;11.20;1.00
18305;DHT22;9278;52.156;21.048;2023-04-25T07:09:22;11.40;1.00
18305;DHT22;9278;52.156;21.048;2023-04-25T07:11:51;11.40;1.00
18305;DHT22;9278;52.156;21.048;2023-04-25T07:14:20;11.80;1.00
18305;DHT22;9278;52.156;21.048;2023-04-25T07:16:49;11.80;1.00
18305;DHT22;9278;52.156;21.048;2023-04-25T07:19:18;11.90;99.90
18305;DHT22;9278;52.156;21.048;2023-04-25T07:21:47;12.10;99.90
18305;DHT22;9278;52.156;21.048;2023-04-25T07:24:15;12.00;99.90
18305;DHT22;9278;52.156;21.048;2023-04-25T07:26:46;12.30;99.90
18305;DHT22;9278;52.156;21.048;2023-04-25T07:29:32;12.10;99.90
18305;DHT22;9278;52.156;21.048;2023-04-25T07:32:04;12.10;99.90
18305;DHT22;9278;52.156;21.048;2023-04-25T07:34:32;12.20;99.90
18305;DHT22;9278;52.156;21.048;2023-04-25T07:37:04;11.90;99.90
18305;DHT22;9278;52.156;21.048;2023-04-25T07:39:42;12.10;99.90
18305;DHT22;9278;52.156;21.048;2023-04-25T07:42:13;12.00;99.90
18305;DHT22;9278;52.156;21.048;2023-04-25T07:44:44;12.20;99.90
18305;DHT22;9278;52.156;21.048;2023-04-25T07:47:14;11.50;99.90
18305;DHT22;9278;52.156;21.048;2023-04-25T07:49:44;11.50;99.90
18305;DHT22;9278;52.156;21.048;2023-04-25T07:52:13;11.40;99.90
18305;DHT22;9278;52.156;21.048;2023-04-25T07:54:48;11.40;99.90
18305;DHT22;9278;52.156;21.048;2023-04-25T07:57:22;11.30;99.90
18305;DHT22;9278;52.156;21.048;2023-04-25T07:59:54;11.70;99.90
18305;DHT22;9278;52.156;21.048;2023-04-25T08:02:22;11.70;99.90
18305;DHT22;9278;52.156;21.048;2023-04-25T08:04:53;12.00;99.90
18305;DHT22;9278;52.156;21.048;2023-04-25T08:07:22;11.90;99.90
18305;DHT22;9278;52.156;21.048;2023-04-25T08:09:54;11.50;99.90
18305;DHT22;9278;52.156;21.048;2023-04-25T08:12:27;11.50;99.90
18305;DHT22;9278;52.156;21.048;2023-04-25T08:14:57;11.20;99.90
18305;DHT22;9278;52.156;21.048;2023-04-25T08:17:31;11.10;99.90
18305;DHT22;9278;52.156;21.048;2023-04-25T08:19:59;11.10;99.90
18305;DHT22;9278;52.156;21.048;2023-04-25T08:22:30;11.00;99.90
18305;DHT22;9278;52.156;21.048;2023-04-25T08:25:20;11.00;99.90
18305;DHT22;9278;52.156;21.048;2023-04-25T08:27:48;11.10;93.60
18305;DHT22;9278;52.156;21.048;2023-04-25T08:30:21;10.80;99.90
18305;DHT22;9278;52.156;21.048;2023-04-25T08:32:50;10.70;99.90
18305;DHT22;9278;52.156;21.048;2023-04-25T08:35:45;10.50;99.90
18305;DHT22;9278;52.156;21.048;2023-04-25T08:38:14;10.60;99.90
18305;DHT22;9278;52.156;21.048;2023-04-25T08:40:43;10.50;99.90
18305;DHT22;9278;52.156;21.048;2023-04-25T08:43:18;10.60;99.90
18305;DHT22;9278;52.156;21.048;2023-04-25T08:45:49;10.70;99.90
18305;DHT22;9278;52.156;21.048;2023-04-25T08:48:33;10.60;99.90
18305;DHT22;9278;52.156;21.048;2023-04-25T08:51:07;10.20;99.90
18305;DHT22;9278;52.156;21.048;2023-04-25T08:53:39;10.40;99.90
18305;DHT22;9278;52.156;21.048;2023-04-25T08:56:10;10.50;99.90
18305;DHT22;9278;52.156;21.048;2023-04-25T08:58:40;10.70;99.90
18305;DHT22;9278;52.156;21.048;2023-04-25T09:01:10;10.30;1.00
18305;DHT22;9278;52.156;21.048;2023-04-25T09:03:47;10.30;99.90
18305;DHT22;9278;52.156;21.048;2023-04-25T09:06:17;10.40;99.90
18305;DHT22;9278;52.156;21.048;2023-04-25T09:08:50;9.30;99.90
18305;DHT22;9278;52.156;21.048;2023-04-25T09:11:18;10.40;99.90
18305;DHT22;9278;52.156;21.048;2023-04-25T09:14:12;10.30;99.90
18305;DHT22;9278;52.156;21.048;2023-04-25T09:17:00;10.40;99.90
18305;DHT22;9278;52.156;21.048;2023-04-25T09:19:39;10.30;99.90
18305;DHT22;9278;52.156;21.048;2023-04-25T09:22:30;10.30;99.90
18305;DHT22;9278;52.156;21.048;2023-04-25T09:25:02;10.50;99.90
18305;DHT22;9278;52.156;21.048;2023-04-25T09:27:32;10.50;99.90
18305;DHT22;9278;52.156;21.048;2023-04-25T09:30:17;10.60;99.90
18305;DHT22;9278;52.156;21.048;2023-04-25T09:33:06;10.40;99.90
18305;DHT22;9278;52.156;21.048;2023-04-25T09:35:37;10.40;99.90
18305;DHT22;9278;52.156;21.048;2023-04-25T09:38:10;10.40;99.90
18305;DHT22;9278;52.156;21.048;2023-04-25T09:40:58;10.50;99.90
18305;DHT22;9278;52.156;21.048;2023-04-25T09:43:40;10.50;99.90
18305;DHT22;9278;52.156;21.048;2023-04-25T09:46:13;10.30;99.90
18305;DHT22;9278;52.156;21.048;2023-04-25T09:48:50;10.20;99.90
18305;DHT22;9278;52.156;21.048;2023-04-25T09:51:36;10.40;99.90
18305;DHT22;9278;52.156;21.048;2023-04-25T09:54:06;10.40;99.90
18305;DHT22;9278;52.156;21.048;2023-04-25T09:56:47;10.30;99.90
18305;DHT22;9278;52.156;21.048;2023-04-25T09:59:18;10.10;99.90
18305;DHT22;9278;52.156;21.048;2023-04-25T10:01:49;10.10;1.00
18305;DHT22;9278;52.156;21.048;2023-04-25T10:04:28;10.10;1.00
18305;DHT22;9278;52.156;21.048;2023-04-25T10:07:07;10.10;1.00
18305;DHT22;9278;52.156;21.048;2023-04-25T10:09:37;10.20;1.00
18305;DHT22;9278;52.156;21.048;2023-04-25T10:12:08;10.20;1.00
18305;DHT22;9278;52.156;21.048;2023-04-25T10:14:36;10.10;99.90
18305;DHT22;9278;52.156;21.048;2023-04-25T10:17:04;10.00;44.20
18305;DHT22;9278;52.156;21.048;2023-04-25T10:19:34;10.00;1.00
18305;DHT22;9278;52.156;21.048;2023-04-25T10:22:07;9.90;99.90
18305;DHT22;9278;52.156;21.048;2023-04-25T10:24:36;10.10;99.90
18305;DHT22;9278;52.156;21.048;2023-04-25T10:27:04;10.30;99.90
18305;DHT22;9278;52.156;21.048;2023-04-25T10:29:34;10.30;99.90
18305;DHT22;9278;52.156;21.048;2023-04-25T10:32:03;10.30;99.90
18305;DHT22;9278;52.156;21.048;2023-04-25T10:34:40;10.50;99.90
18305;DHT22;9278;52.156;21.048;2023-04-25T10:37:09;10.60;99.90
18305;DHT22;9278;52.156;21.048;2023-04-25T10:39:39;10.50;99.90
18305;DHT22;9278;52.156;21.048;2023-04-25T10:42:08;10.70;99.90
18305;DHT22;9278;52.156;21.048;2023-04-25T10:44:37;10.70;99.90
18305;DHT22;9278;52.156;21.048;2023-04-25T10:47:07;11.10;99.90
18305;DHT22;9278;52.156;21.048;2023-04-25T10:49:41;11.20;99.90
18305;DHT22;9278;52.156;21.048;2023-04-25T10:52:25;11.30;99.90
18305;DHT22;9278;52.156;21.048;2023-04-25T10:54:55;11.00;99.90
18305;DHT22;9278;52.156;21.048;2023-04-25T10:57:40;10.90;99.90
18305;DHT22;9278;52.156;21.048;2023-04-25T11:00:11;11.30;99.90
18305;DHT22;9278;52.156;21.048;2023-04-25T11:02:44;10.80;99.90
18305;DHT22;9278;52.156;21.048;2023-04-25T11:05:23;10.60;99.90
18305;DHT22;9278;52.156;21.048;2023-04-25T11:07:59;10.70;99.90
18305;DHT22;9278;52.156;21.048;2023-04-25T11:10:48;10.80;99.90
18305;DHT22;9278;52.156;21.048;2023-04-25T11:13:20;10.90;99.90
18305;DHT22;9278;52.156;21.048;2023-04-25T11:15:51;11.00;99.90
18305;DHT22;9278;52.156;21.048;2023-04-25T11:18:40;10.80;99.90
18305;DHT22;9278;52.156;21.048;2023-04-25T11:21:11;11.00;99.90
18305;DHT22;9278;52.156;21.048;2023-04-25T11:23:39;11.20;99.90
18305;DHT22;9278;52.156;21.048;2023-04-25T11:26:08;10.90;99.90
18305;DHT22;9278;52.156;21.048;2023-04-25T11:28:36;11.20;99.90
18305;DHT22;9278;52.156;21.048;2023-04-25T11:31:04;11.20;99.90
18305;DHT22;9278;52.156;21.048;2023-04-25T11:33:33;11.50;99.90
18305;DHT22;9278;52.156;21.048;2023-04-25T11:36:01;11.30;99.90
18305;DHT22;9278;52.156;21.048;2023-04-25T11:38:31;11.30;99.90
18305;DHT22;9278;52.156;21.048;2023-04-25T11:41:00;11.50;99.90
18305;DHT22;9278;52.156;21.048;2023-04-25T11:43:28;11.60;99.90
18305;DHT22;9278;52.156;21.048;2023-04-25T11:45:57;11.50;99.90
18305;DHT22;9278;52.156;21.048;2023-04-25T11:48:25;11.50;99.90
18305;DHT22;9278;52.156;21.048;2023-04-25T11:50:53;11.60;99.90
18305;DHT22;9278;52.156;21.048;2023-04-25T11:53:22;11.60;99.90
18305;DHT22;9278;52.156;21.048;2023-04-25T11:55:53;11.50;99.90
18305;DHT22;9278;52.156;21.048;2023-04-25T11:58:21;11.20;99.90
18305;DHT22;9278;52.156;21.048;2023-04-25T12:00:49;11.50;99.90
18305;DHT22;9278;52.156;21.048;2023-04-25T12:03:18;11.30;99.90
18305;DHT22;9278;52.156;21.048;2023-04-25T12:05:47;11.30;99.90
18305;DHT22;9278;52.156;21.048;2023-04-25T12:08:16;11.20;99.90
18305;DHT22;9278;52.156;21.048;2023-04-25T12:10:45;11.50;99.90
18305;DHT22;9278;52.156;21.048;2023-04-25T12:13:23;11.30;99.90
18305;DHT22;9278;52.156;21.048;2023-04-25T12:15:54;11.20;99.90
18305;DHT22;9278;52.156;21.048;2023-04-25T12:18:24;11.40;99.90
18305;DHT22;9278;52.156;21.048;2023-04-25T12:20:54;11.30;99.90
18305;DHT22;9278;52.156;21.048;2023-04-25T12:23:26;11.10;99.90
18305;DHT22;9278;52.156;21.048;2023-04-25T12:25:55;11.10;99.90
18305;DHT22;9278;52.156;21.048;2023-04-25T12:28:26;11.00;99.90
18305;DHT22;9278;52.156;21.048;2023-04-25T12:30:59;10.90;99.90
18305;DHT22;9278;52.156;21.048;2023-04-25T12:33:30;10.90;99.90
18305;DHT22;9278;52.156;21.048;2023-04-25T12:35:59;11.00;99.90
18305;DHT22;9278;52.156;21.048;2023-04-25T12:38:35;11.00;99.90
18305;DHT22;9278;52.156;21.048;2023-04-25T12:41:04;10.90;99.90
18305;DHT22;9278;52.156;21.048;2023-04-25T12:43:34;10.90;99.90
18305;DHT22;9278;52.156;21.048;2023-04-25T12:46:03;10.90;99.90
18305;DHT22;9278;52.156;21.048;2023-04-25T12:48:31;11.00;99.90
18305;DHT22;9278;52.156;21.048;2023-04-25T12:50:59;11.00;99.90
18305;DHT22;9278;52.156;21.048;2023-04-25T12:53:28;11.30;99.90
18305;DHT22;9278;52.156;21.048;2023-04-25T12:55:59;11.30;99.90
18305;DHT22;9278;52.156;21.048;2023-04-25T12:58:27;11.20;99.90
18305;DHT22;9278;52.156;21.048;2023-04-25T13:00:56;11.30;99.90
18305;DHT22;9278;52.156;21.048;2023-04-25T13:05:54;11.40;99.90
18305;DHT22;9278;52.156;21.048;2023-04-25T13:08:22;11.90;99.90
18305;DHT22;9278;52.156;21.048;2023-04-25T13:10:50;11.20;99.90
18305;DHT22;9278;52.156;21.048;2023-04-25T13:13:19;11.20;99.90
18305;DHT22;9278;52.156;21.048;2023-04-25T13:15:47;11.10;99.90
18305;DHT22;9278;52.156;21.048;2023-04-25T13:18:16;11.10;99.90
18305;DHT22;9278;52.156;21.048;2023-04-25T13:20:45;10.90;99.90
18305;DHT22;9278;52.156;21.048;2023-04-25T13:23:13;11.00;1.00
18305;DHT22;9278;52.156;21.048;2023-04-25T13:25:42;10.80;99.90
18305;DHT22;9278;52.156;21.048;2023-04-25T13:28:10;10.80;99.90
18305;DHT22;9278;52.156;21.048;2023-04-25T13:30:38;11.00;99.90
18305;DHT22;9278;52.156;21.048;2023-04-25T13:35:41;11.00;99.90
18305;DHT22;9278;52.156;21.048;2023-04-25T13:38:10;11.20;99.90
18305;DHT22;9278;52.156;21.048;2023-04-25T13:40:38;11.10;99.90
18305;DHT22;9278;52.156;21.048;2023-04-25T13:43:07;10.60;99.90
18305;DHT22;9278;52.156;21.048;2023-04-25T13:45:35;10.60;99.90
18305;DHT22;9278;52.156;21.048;2023-04-25T13:48:04;10.50;94.70
18305;DHT22;9278;52.156;21.048;2023-04-25T13:50:32;10.60;99.90
18305;DHT22;9278;52.156;21.048;2023-04-25T13:53:02;10.70;99.90
18305;DHT22;9278;52.156;21.048;2023-04-25T13:55:30;10.80;99.90
18305;DHT22;9278;52.156;21.048;2023-04-25T13:57:58;10.90;99.90
18305;DHT22;9278;52.156;21.048;2023-04-25T14:00:35;11.00;99.90
18305;DHT22;9278;52.156;21.048;2023-04-25T14:03:05;11.10;99.90
18305;DHT22;9278;52.156;21.048;2023-04-25T14:05:36;11.00;99.90
18305;DHT22;9278;52.156;21.048;2023-04-25T14:08:08;11.00;99.90
18305;DHT22;9278;52.156;21.048;2023-04-25T14:10:37;11.00;99.90
18305;DHT22;9278;52.156;21.048;2023-04-25T14:13:05;11.40;99.90
18305;DHT22;9278;52.156;21.048;2023-04-25T14:15:37;11.00;99.90
18305;DHT22;9278;52.156;21.048;2023-04-25T14:20:34;10.70;99.90
18305;DHT22;9278;52.156;21.048;2023-04-25T14:25:33;10.00;99.90
18305;DHT22;9278;52.156;21.048;2023-04-25T14:28:02;9.70;1.00
18305;DHT22;9278;52.156;21.048;2023-04-25T14:30:30;9.90;1.00
18305;DHT22;9278;52.156;21.048;2023-04-25T14:32:59;10.30;99.90
18305;DHT22;9278;52.156;21.048;2023-04-25T14:37:55;10.20;1.00
18305;DHT22;9278;52.156;21.048;2023-04-25T14:40:24;10.10;99.90
18305;DHT22;9278;52.156;21.048;2023-04-25T14:42:54;10.70;1.00
18305;DHT22;9278;52.156;21.048;2023-04-25T14:47:51;10.10;1.00
18305;DHT22;9278;52.156;21.048;2023-04-25T14:50:20;10.10;1.00
18305;DHT22;9278;52.156;21.048;2023-04-25T14:57:45;10.00;1.00
18305;DHT22;9278;52.156;21.048;2023-04-25T15:00:15;10.10;1.00
18305;DHT22;9278;52.156;21.048;2023-04-25T15:02:43;9.90;99.90
18305;DHT22;9278;52.156;21.048;2023-04-25T15:07:41;9.80;1.00
18305;DHT22;9278;52.156;21.048;2023-04-25T15:10:10;10.00;99.90
18305;DHT22;9278;52.156;21.048;2023-04-25T15:12:40;9.90;31.30
18305;DHT22;9278;52.156;21.048;2023-04-25T15:15:09;10.10;1.00
18305;DHT22;9278;52.156;21.048;2023-04-25T15:17:45;10.10;24.20
18305;DHT22;9278;52.156;21.048;2023-04-25T15:20:13;9.90;1.00
18305;DHT22;9278;52.156;21.048;2023-04-25T15:22:43;10.00;1.00
18305;DHT22;9278;52.156;21.048;2023-04-25T15:27:40;10.40;1.00
18305;DHT22;9278;52.156;21.048;2023-04-25T15:30:11;10.30;1.00
18305;DHT22;9278;52.156;21.048;2023-04-25T15:32:42;10.30;99.90
18305;DHT22;9278;52.156;21.048;2023-04-25T15:35:12;10.20;1.00
18305;DHT22;9278;52.156;21.048;2023-04-25T15:40:13;10.50;99.90
18305;DHT22;9278;52.156;21.048;2023-04-25T15:42:43;10.50;99.90
18305;DHT22;9278;52.156;21.048;2023-04-25T15:45:14;11.00;1.00
18305;DHT22;9278;52.156;21.048;2023-04-25T15:47:44;10.40;99.90
18305;DHT22;9278;52.156;21.048;2023-04-25T15:50:14;10.50;99.90
18305;DHT22;9278;52.156;21.048;2023-04-25T15:52:43;10.40;99.90
18305;DHT22;9278;52.156;21.048;2023-04-25T15:55:11;10.30;99.90
18305;DHT22;9278;52.156;21.048;2023-04-25T15:57:40;10.20;99.90
18305;DHT22;9278;52.156;21.048;2023-04-25T16:00:10;10.10;99.90
18305;DHT22;9278;52.156;21.048;2023-04-25T16:02:39;10.10;1.00
18305;DHT22;9278;52.156;21.048;2023-04-25T16:05:09;10.10;99.90
18305;DHT22;9278;52.156;21.048;2023-04-25T16:07:41;10.00;99.90
18305;DHT22;9278;52.156;21.048;2023-04-25T16:10:11;10.20;99.90
18305;DHT22;9278;52.156;21.048;2023-04-25T16:12:39;10.10;99.90
18305;DHT22;9278;52.156;21.048;2023-04-25T16:15:08;9.90;99.90
18305;DHT22;9278;52.156;21.048;2023-04-25T16:17:37;9.90;99.90
18305;DHT22;9278;52.156;21.048;2023-04-25T16:20:07;9.80;99.90
18305;DHT22;9278;52.156;21.048;2023-04-25T16:22:37;9.80;99.90
18305;DHT22;9278;52.156;21.048;2023-04-25T16:25:08;9.70;99.90
18305;DHT22;9278;52.156;21.048;2023-04-25T16:27:37;9.60;99.90
18305;DHT22;9278;52.156;21.048;2023-04-25T16:30:08;9.50;99.90
18305;DHT22;9278;52.156;21.048;2023-04-25T16:32:37;10.00;99.90
18305;DHT22;9278;52.156;21.048;2023-04-25T16:35:06;9.30;1.00
18305;DHT22;9278;52.156;21.048;2023-04-25T16:37:35;9.30;99.90
18305;DHT22;9278;52.156;21.048;2023-04-25T16:40:04;9.00;99.90
18305;DHT22;9278;52.156;21.048;2023-04-25T16:42:36;9.20;99.90
18305;DHT22;9278;52.156;21.048;2023-04-25T16:45:05;9.10;99.90
18305;DHT22;9278;52.156;21.048;2023-04-25T16:47:33;8.90;1.00
18305;DHT22;9278;52.156;21.048;2023-04-25T16:50:02;8.60;99.90
18305;DHT22;9278;52.156;21.048;2023-04-25T16:52:31;8.70;1.00
18305;DHT22;9278;52.156;21.048;2023-04-25T16:54:59;8.70;99.90
18305;DHT22;9278;52.156;21.048;2023-04-25T16:57:27;8.70;1.00
18305;DHT22;9278;52.156;21.048;2023-04-25T16:59:57;8.70;1.00